Time;durP1;ratioP1;P1;durP2;ratioP2;P2;SDS_P1;SDS_P2;PMS_P1;PMS_P2;Temp;Humidity;BMP_temperature;BMP_pressure;BME280_temperature;BME280_humidity;BME280_pressure;Samples;Min_cycle;Max_cycle;Signal;HPM_P1;HPM_P2
2023/10/04 00:01:50;;;;;;;;;;;18.10;50.60;;;17.28;51.95;101686.81;12290574;19;19923;-84
2023/10/04 00:05:51;;;;;;;;;;;18.10;50.70;;;17.25;52.34;101685.22;12294529;19;19919;-84
2023/10/04 00:09:53;;;;;;;;;;;18.10;50.50;;;17.28;52.19;101702.63;12288763;19;19934;-84
2023/10/04 00:13:55;;;;;;;;;;;18.10;50.60;;;17.16;52.21;101676.13;12290951;19;19951;-84
2023/10/04 00:17:57;;;;;;;;;;;18.10;50.80;;;17.20;52.16;101690.81;12294941;19;19915;-84
2023/10/04 00:21:58;;;;;;;;;;;18.10;50.60;;;17.18;52.35;101691.88;12289213;19;19943;-85
2023/10/04 00:26:00;;;;;;;;;;;18.10;50.50;;;17.21;52.42;101710.97;12291113;19;19922;-85
2023/10/04 00:30:02;;;;;;;;;;;18.10;50.50;;;17.16;52.47;101718.38;12288789;19;19918;-84
2023/10/04 00:34:04;;;;;;;;;;;18.10;50.40;;;17.12;52.28;101713.38;12289542;19;19911;-84
2023/10/04 00:38:08;;;;;;;;;;;18.00;50.40;;;17.08;52.19;101722.47;12291918;19;19922;-84
2023/10/04 00:42:10;;;;;;;;;;;18.00;50.50;;;17.12;52.27;101739.78;12291124;19;19929;-84
2023/10/04 00:46:12;;;;;;;;;;;18.00;50.60;;;16.96;52.07;101724.97;12288777;19;19919;-84
2023/10/04 00:50:15;;;;;;;;;;;18.00;50.80;;;16.97;52.45;101729.31;12287290;19;19933;-84
2023/10/04 00:54:17;;;;;;;;;;;18.00;50.60;;;16.92;52.36;101722.63;12284476;19;19915;-84
2023/10/04 00:58:19;;;;;;;;;;;18.00;50.80;;;17.06;52.43;101745.47;12285000;19;20320;-85
2023/10/04 01:02:21;;;;;;;;;;;17.90;50.60;;;17.02;52.31;101747.47;12287331;19;19927;-84
2023/10/04 01:06:22;;;;;;;;;;;17.90;50.50;;;16.90;52.53;101733.28;12286814;19;20570;-85
2023/10/04 01:10:30;;;;;;;;;;;17.90;50.50;;;16.84;52.64;101715.22;12280052;19;19928;-85
2023/10/04 01:14:37;;;;;;;;;;;17.90;50.50;;;17.00;52.44;101729.09;12280804;19;19962;-85
2023/10/04 01:18:39;;;;;;;;;;;17.90;50.50;;;16.86;52.40;101707.22;12282392;19;19939;-84
2023/10/04 01:22:41;;;;;;;;;;;17.90;50.50;;;17.00;52.53;101728.25;12282960;19;20553;-83
2023/10/04 01:26:42;;;;;;;;;;;17.90;50.50;;;17.04;52.41;101742.94;12286088;19;19972;-84
2023/10/04 01:30:51;;;;;;;;;;;17.90;50.50;;;16.99;52.35;101745.03;12281497;19;19922;-84
2023/10/04 01:34:53;;;;;;;;;;;17.90;50.60;;;16.84;52.28;101717.84;12281422;19;19939;-83
2023/10/04 01:38:54;;;;;;;;;;;17.90;50.80;;;16.93;52.33;101734.88;12282875;19;20299;-86
2023/10/04 01:42:56;;;;;;;;;;;17.80;50.50;;;16.80;52.35;101714.59;12282065;19;19915;-84
2023/10/04 01:46:58;;;;;;;;;;;17.80;50.40;;;16.91;52.41;101736.78;12285577;19;19907;-85
2023/10/04 01:51:16;;;;;;;;;;;17.80;50.50;;;16.86;52.48;101733.59;12283155;19;19927;-84
2023/10/04 01:55:18;;;;;;;;;;;17.70;50.60;;;16.82;52.56;101725.03;12281301;19;19929;-85
2023/10/04 01:59:20;;;;;;;;;;;17.70;50.50;;;16.69;52.39;101708.28;12282948;19;19943;-84
2023/10/04 02:03:22;;;;;;;;;;;17.70;50.50;;;16.70;52.54;101721.38;12282023;19;19922;-84
2023/10/04 02:07:25;;;;;;;;;;;17.60;50.50;;;16.77;52.62;101729.78;12284052;19;19907;-85
2023/10/04 02:11:26;;;;;;;;;;;17.60;50.60;;;16.77;52.40;101730.63;12285664;19;19927;-83
2023/10/04 02:15:28;;;;;;;;;;;17.60;50.50;;;16.78;52.38;101740.22;12278747;19;19926;-84
2023/10/04 02:19:30;;;;;;;;;;;17.60;50.60;;;16.76;52.44;101734.16;12276012;19;19914;-85
2023/10/04 02:23:32;;;;;;;;;;;17.60;50.50;;;16.74;52.53;101727.28;12282621;19;19923;-84
2023/10/04 02:27:33;;;;;;;;;;;17.60;50.60;;;16.71;52.37;101723.06;12281892;19;19922;-85
2023/10/04 02:31:36;;;;;;;;;;;17.50;50.50;;;16.69;52.35;101727.59;12284072;19;19914;-83
2023/10/04 02:35:43;;;;;;;;;;;17.50;50.50;;;16.58;52.45;101730.09;12283868;19;19911;-85
2023/10/04 02:39:46;;;;;;;;;;;17.50;50.50;;;16.62;52.48;101747.41;12291602;19;19926;-85
2023/10/04 02:43:48;;;;;;;;;;;17.50;50.50;;;16.49;52.55;101723.59;12292623;19;19927;-83
2023/10/04 02:47:51;;;;;;;;;;;17.40;50.50;;;16.52;52.51;101730.47;12291871;19;19911;-85
2023/10/04 02:51:52;;;;;;;;;;;17.40;50.90;;;16.42;52.72;101724.97;12293225;19;19933;-83
2023/10/04 02:55:54;;;;;;;;;;;17.40;50.70;;;16.46;52.56;101738.78;12296759;19;19911;-84
2023/10/04 02:59:59;;;;;;;;;;;17.30;50.60;;;16.36;52.69;101720.91;12288967;19;19948;-85
2023/10/04 03:04:01;;;;;;;;;;;17.30;50.60;;;16.38;52.62;101739.25;12292607;19;19923;-84
2023/10/04 03:08:06;;;;;;;;;;;17.30;50.70;;;16.40;52.45;101739.19;12288536;19;19927;-85
2023/10/04 03:12:10;;;;;;;;;;;17.20;50.60;;;16.40;52.85;101741.81;12290791;19;19922;-84
2023/10/04 03:16:12;;;;;;;;;;;17.30;50.70;;;16.36;52.70;101744.66;12284205;19;19919;-84
2023/10/04 03:20:20;;;;;;;;;;;17.20;50.60;;;16.28;52.57;101730.22;12279180;19;19923;-84
2023/10/04 03:24:23;;;;;;;;;;;17.20;50.60;;;16.35;52.58;101752.63;12260748;19;19915;-85
2023/10/04 03:28:33;;;;;;;;;;;17.20;50.70;;;16.29;52.49;101745.13;12259663;19;19923;-84
2023/10/04 03:32:37;;;;;;;;;;;17.20;50.70;;;16.29;52.62;101750.41;12262791;19;19951;-84
2023/10/04 03:36:39;;;;;;;;;;;17.10;50.60;;;16.28;52.63;101754.81;12267105;19;19911;-84
2023/10/04 03:40:43;;;;;;;;;;;17.10;51.10;;;16.22;52.79;101754.34;12260537;19;20528;-84
2023/10/04 03:44:49;;;;;;;;;;;17.10;50.70;;;16.14;52.58;101753.03;12263684;19;20396;-84
2023/10/04 03:48:51;;;;;;;;;;;17.10;50.80;;;16.25;52.66;101769.97;12258131;19;19943;-84
2023/10/04 03:52:57;;;;;;;;;;;17.10;50.80;;;16.21;52.71;101782.50;12257081;19;19923;-83
2023/10/04 03:57:06;;;;;;;;;;;17.10;50.70;;;16.13;52.70;101772.44;12259967;19;19945;-84
2023/10/04 04:01:10;;;;;;;;;;;17.00;50.80;;;16.10;52.65;101771.78;12257601;19;19915;-84
2023/10/04 04:05:14;;;;;;;;;;;17.00;50.90;;;16.07;52.89;101779.88;12255646;19;19922;-84
2023/10/04 04:09:15;;;;;;;;;;;16.90;50.70;;;15.95;52.84;101764.81;12254442;19;19911;-84
2023/10/04 04:13:18;;;;;;;;;;;16.90;50.80;;;15.87;52.80;101755.56;12255201;19;19923;-84
2023/10/04 04:17:22;;;;;;;;;;;16.90;50.80;;;15.89;52.90;101766.88;12051979;19;3958639;-84
2023/10/04 04:21:27;;;;;;;;;;;16.90;50.80;;;15.90;52.90;101765.94;12258368;19;19914;-84
2023/10/04 04:25:29;;;;;;;;;;;16.90;50.80;;;15.96;52.76;101784.94;12256619;19;19977;-84
2023/10/04 04:29:31;;;;;;;;;;;16.80;50.80;;;15.89;52.81;101763.41;12258285;19;19927;-85
2023/10/04 04:33:35;;;;;;;;;;;16.80;50.70;;;15.83;52.91;101753.25;12247583;19;20026;-84
2023/10/04 04:37:37;;;;;;;;;;;16.80;50.80;;;15.87;52.90;101776.66;12257705;19;19915;-84
2023/10/04 04:41:39;;;;;;;;;;;16.80;50.90;;;15.87;53.00;101781.91;12257591;19;19930;-84
2023/10/04 04:45:40;;;;;;;;;;;16.70;50.80;;;15.85;52.91;101780.31;12259474;19;19933;-84
2023/10/04 04:49:43;;;;;;;;;;;16.70;50.90;;;15.83;52.92;101774.31;12254434;19;19943;-86
2023/10/04 04:53:46;;;;;;;;;;;16.70;51.10;;;15.63;52.90;101746.50;12260364;19;19919;-85
2023/10/04 04:57:50;;;;;;;;;;;16.80;51.00;;;15.78;53.17;101787.75;12258747;19;19930;-85
2023/10/04 05:01:55;;;;;;;;;;;16.70;50.90;;;15.81;53.21;101781.47;12257590;19;19930;-85
2023/10/04 05:05:57;;;;;;;;;;;16.70;50.90;;;15.77;53.06;101778.16;12260796;19;19921;-85
2023/10/04 05:09:59;;;;;;;;;;;16.70;51.10;;;15.68;52.93;101762.88;12268045;19;19935;-85
2023/10/04 05:14:01;;;;;;;;;;;16.70;51.00;;;15.78;53.13;101779.84;12265782;19;19919;-85
2023/10/04 05:18:04;;;;;;;;;;;16.70;51.00;;;15.81;53.08;101776.19;12265906;19;20280;-84
2023/10/04 05:22:07;;;;;;;;;;;16.70;51.10;;;15.79;53.14;101783.31;12263859;19;19935;-84
2023/10/04 05:26:09;;;;;;;;;;;16.70;51.00;;;15.77;53.06;101788.72;12257342;19;19931;-84
2023/10/04 05:30:14;;;;;;;;;;;16.60;50.90;;;15.81;53.11;101799.91;12245983;19;19943;-85
2023/10/04 05:34:15;;;;;;;;;;;16.70;50.90;;;15.73;52.96;101795.06;12243215;19;19925;-85
2023/10/04 05:38:17;;;;;;;;;;;16.70;50.90;;;15.75;53.19;101787.09;12245376;19;19923;-85
2023/10/04 05:42:18;;;;;;;;;;;16.70;51.00;;;15.70;53.15;101785.56;12244787;19;19926;-85
2023/10/04 05:46:20;;;;;;;;;;;16.70;51.10;;;15.71;53.17;101796.94;12247094;19;19947;-85
2023/10/04 05:50:22;;;;;;;;;;;16.70;51.00;;;15.79;53.09;101805.25;12246511;19;19915;-86
2023/10/04 05:54:23;;;;;;;;;;;16.70;51.20;;;15.76;53.24;101810.69;12246634;19;19911;-87
2023/10/04 05:58:25;;;;;;;;;;;16.70;51.10;;;15.44;53.25;101758.13;12245793;19;20277;-88
2023/10/04 06:02:28;;;;;;;;;;;16.70;51.10;;;15.58;53.22;101788.06;12244313;19;19978;-87
2023/10/04 06:06:32;;;;;;;;;;;16.70;51.20;;;15.79;53.22;101826.31;12246284;19;20382;-86
2023/10/04 06:10:34;;;;;;;;;;;16.70;51.40;;;15.65;53.23;101807.81;12245105;19;19919;-86
2023/10/04 06:14:36;;;;;;;;;;;16.70;51.20;;;15.73;53.25;101829.31;12255425;19;19919;-87
2023/10/04 06:18:41;;;;;;;;;;;16.70;51.50;;;15.72;53.42;101835.53;12258416;19;19918;-87
2023/10/04 06:22:43;;;;;;;;;;;16.70;51.20;;;15.77;53.33;101838.75;12258809;19;19915;-86
2023/10/04 06:26:44;;;;;;;;;;;16.70;51.30;;;15.75;53.57;101835.34;12254463;19;19919;-86
2023/10/04 06:30:48;;;;;;;;;;;16.70;51.20;;;15.72;53.37;101832.06;12250527;19;20271;-86
2023/10/04 06:34:50;;;;;;;;;;;16.70;51.40;;;15.83;53.56;101848.91;12250966;19;20380;-86
2023/10/04 06:38:51;;;;;;;;;;;16.80;51.30;;;15.88;53.55;101869.72;12253715;19;19918;-86
2023/10/04 06:42:55;;;;;;;;;;;16.80;51.30;;;15.81;53.39;101849.94;12256362;19;20662;-86
2023/10/04 06:46:57;;;;;;;;;;;16.90;51.30;;;15.90;53.50;101881.88;12255921;19;20427;-85
2023/10/04 06:50:59;;;;;;;;;;;16.90;51.30;;;15.82;53.60;101868.28;12252330;19;20297;-86
2023/10/04 06:55:02;;;;;;;;;;;16.90;51.20;;;15.89;53.66;101882.78;12253467;19;19970;-85
2023/10/04 06:59:03;;;;;;;;;;;16.90;51.30;;;15.74;53.48;101859.97;12254879;19;19938;-86
2023/10/04 07:03:05;;;;;;;;;;;17.00;51.30;;;15.85;53.61;101861.97;12255596;19;19935;-87
2023/10/04 07:07:07;;;;;;;;;;;17.00;51.30;;;15.99;53.58;101893.63;12257998;19;19927;-86
2023/10/04 07:11:09;;;;;;;;;;;17.10;51.50;;;16.03;53.44;101896.94;12256281;19;19940;-86
2023/10/04 07:15:12;;;;;;;;;;;17.10;51.40;;;16.15;53.69;101917.28;12250661;19;20254;-86
2023/10/04 07:19:16;;;;;;;;;;;17.20;51.30;;;16.21;53.61;101916.06;12249993;19;19918;-86
2023/10/04 07:23:17;;;;;;;;;;;17.20;51.30;;;16.10;53.77;101895.63;12253995;19;19922;-86
2023/10/04 07:27:19;;;;;;;;;;;17.30;51.60;;;16.40;53.70;101929.00;12253710;19;19927;-86
2023/10/04 07:31:21;;;;;;;;;;;17.40;51.60;;;16.33;53.65;101915.31;12253407;19;19935;-85
2023/10/04 07:35:25;;;;;;;;;;;17.40;51.50;;;16.46;53.80;101931.25;12250925;19;19956;-85
2023/10/04 07:39:27;;;;;;;;;;;17.50;51.50;;;16.59;53.70;101937.47;12250688;19;20363;-85
2023/10/04 07:43:29;;;;;;;;;;;17.60;51.50;;;16.56;53.79;101925.31;12252488;19;19931;-87
2023/10/04 07:47:31;;;;;;;;;;;17.60;51.50;;;16.67;53.77;101924.66;12252127;19;19978;-87
2023/10/04 07:51:33;;;;;;;;;;;17.70;51.60;;;16.72;54.02;101935.78;12253367;19;19922;-86
2023/10/04 07:55:34;;;;;;;;;;;17.70;51.40;;;16.79;53.71;101937.13;12247577;19;19911;-86
2023/10/04 07:59:37;;;;;;;;;;;17.80;51.60;;;16.87;53.87;101946.34;12248975;19;20622;-86
2023/10/04 08:03:38;;;;;;;;;;;17.80;51.50;;;16.89;53.81;101950.59;12251882;19;19922;-87
2023/10/04 08:07:40;;;;;;;;;;;17.90;51.60;;;16.95;53.82;101950.19;12252685;19;19923;-86
2023/10/04 08:11:41;;;;;;;;;;;18.00;51.60;;;16.99;53.93;101943.81;12249924;19;19922;-85
2023/10/04 08:15:43;;;;;;;;;;;18.10;51.70;;;17.05;53.89;101952.28;12249037;19;20380;-85
2023/10/04 08:19:44;;;;;;;;;;;18.10;51.40;;;17.02;53.72;101948.88;12248130;19;19918;-85
2023/10/04 08:23:46;;;;;;;;;;;18.10;51.50;;;16.92;53.81;101929.28;12249286;19;19922;-85
2023/10/04 08:27:50;;;;;;;;;;;18.20;51.50;;;17.14;53.97;101954.34;12249214;19;19925;-84
2023/10/04 08:31:52;;;;;;;;;;;18.20;51.40;;;17.29;54.11;101963.09;12250681;19;19917;-85
2023/10/04 08:35:54;;;;;;;;;;;18.30;51.50;;;17.23;54.09;101932.66;12247806;19;20012;-84
2023/10/04 08:39:55;;;;;;;;;;;18.40;51.60;;;17.43;53.98;101955.97;12248611;19;19943;-84
2023/10/04 08:43:57;;;;;;;;;;;18.50;51.50;;;17.48;53.86;101953.03;12248014;19;19933;-85
2023/10/04 08:47:59;;;;;;;;;;;18.60;51.60;;;17.54;53.74;101960.56;12247126;19;19932;-84
2023/10/04 08:52:20;;;;;;;;;;;18.70;51.50;;;17.64;53.96;101969.56;12248907;19;19943;-84
2023/10/04 08:56:23;;;;;;;;;;;18.70;51.50;;;17.71;53.70;101972.66;12248406;19;19921;-84
2023/10/04 09:00:28;;;;;;;;;;;18.80;51.30;;;17.69;53.83;101954.28;12245382;19;19926;-84
2023/10/04 09:04:30;;;;;;;;;;;18.80;51.30;;;17.81;53.98;101980.88;12248206;19;19974;-84
2023/10/04 09:08:33;;;;;;;;;;;18.80;51.30;;;17.76;54.02;101956.50;12246867;19;20262;-84
2023/10/04 09:12:36;;;;;;;;;;;18.90;51.30;;;17.90;53.81;101974.97;12249265;19;19929;-84
2023/10/04 09:16:39;;;;;;;;;;;19.00;51.40;;;17.97;54.09;101991.28;12250873;19;19990;-84
2023/10/04 09:20:42;;;;;;;;;;;19.00;51.30;;;18.04;54.11;101989.94;12246564;19;19922;-85
2023/10/04 09:24:54;;;;;;;;;;;19.10;51.40;;;18.10;53.92;101998.28;12251311;19;19918;-84
2023/10/04 09:28:56;;;;;;;;;;;19.10;51.30;;;18.18;53.81;102000.44;12245429;19;19919;-84
2023/10/04 09:32:58;;;;;;;;;;;19.20;51.30;;;18.25;53.95;101998.22;12245263;19;19974;-84
2023/10/04 09:36:59;;;;;;;;;;;19.30;51.40;;;18.31;54.07;101997.81;12245726;19;19929;-84
2023/10/04 09:41:01;;;;;;;;;;;19.40;51.20;;;18.36;53.96;101998.31;12247892;19;19915;-85
2023/10/04 09:45:07;;;;;;;;;;;19.50;51.10;;;18.17;53.81;101993.44;12247049;19;19927;-84
2023/10/04 09:49:09;;;;;;;;;;;19.40;50.90;;;18.08;54.00;101973.75;12243186;19;19911;-84
2023/10/04 09:53:11;;;;;;;;;;;19.40;50.90;;;18.14;53.76;101978.63;12248730;19;20022;-84
2023/10/04 09:57:14;;;;;;;;;;;19.40;50.90;;;18.21;53.73;101975.59;12247478;19;19932;-84
2023/10/04 10:01:17;;;;;;;;;;;19.40;50.90;;;18.28;53.83;101976.84;12246974;19;19919;-84
2023/10/04 10:05:27;;;;;;;;;;;19.50;51.00;;;18.49;53.73;102011.56;12247529;19;20370;-83
2023/10/04 10:09:30;;;;;;;;;;;19.50;50.90;;;18.45;53.63;102002.16;12246621;19;20251;-84
2023/10/04 10:13:33;;;;;;;;;;;19.60;51.00;;;18.33;53.59;101972.09;12246556;19;20364;-85
2023/10/04 10:17:35;;;;;;;;;;;19.60;50.90;;;18.56;53.75;102010.22;12245000;19;19918;-83
2023/10/04 10:22:02;;;;;;;;;;;19.60;50.90;;;18.67;54.01;102025.34;12248255;19;19915;-84
2023/10/04 10:26:18;;;;;;;;;;;19.60;50.90;;;18.71;53.81;102018.88;12247196;19;19922;-84
2023/10/04 10:30:19;;;;;;;;;;;19.70;50.90;;;18.75;53.60;102026.53;12242046;19;19930;-83
2023/10/04 10:34:21;;;;;;;;;;;19.80;50.90;;;18.85;54.00;102032.06;12244287;19;19911;-84
2023/10/04 10:38:41;;;;;;;;;;;19.90;50.90;;;18.94;53.79;102036.69;12245871;19;20674;-84
2023/10/04 10:43:08;;;;;;;;;;;19.90;50.80;;;19.01;53.56;102032.69;12249952;19;19922;-83
2023/10/04 10:47:21;;;;;;;;;;;20.00;50.80;;;19.06;53.74;102029.69;12247539;19;19926;-85
2023/10/04 10:51:40;;;;;;;;;;;20.10;50.90;;;19.10;53.48;102033.00;12247836;19;19925;-83
2023/10/04 10:55:41;;;;;;;;;;;20.10;50.90;;;19.23;53.84;102028.53;12244756;19;20334;-84
2023/10/04 10:59:43;;;;;;;;;;;20.30;50.80;;;19.30;53.48;102019.16;12258174;19;19914;-84
2023/10/04 11:03:45;;;;;;;;;;;20.30;50.50;;;19.29;53.70;102014.00;12259730;19;19919;-83
2023/10/04 11:07:51;;;;;;;;;;;20.40;50.40;;;19.33;53.74;102012.81;12261204;19;20333;-84
2023/10/04 11:11:53;;;;;;;;;;;20.40;50.40;;;19.30;53.33;102008.56;12256537;19;19943;-84
2023/10/04 11:15:55;;;;;;;;;;;20.40;50.30;;;19.31;53.32;102002.34;12253635;19;19907;-84
2023/10/04 11:19:57;;;;;;;;;;;20.40;50.40;;;19.43;53.67;102021.78;12254491;19;19919;-84
2023/10/04 11:24:01;;;;;;;;;;;20.40;50.40;;;19.46;53.91;102011.81;12256970;19;19922;-84
2023/10/04 11:28:04;;;;;;;;;;;20.50;50.20;;;19.47;53.33;102004.72;12258714;19;19915;-85
2023/10/04 11:32:06;;;;;;;;;;;20.60;49.90;;;19.54;53.53;102018.38;12258121;19;19915;-84
2023/10/04 11:36:18;;;;;;;;;;;20.60;50.00;;;19.70;53.32;102023.44;12259243;19;19924;-84
2023/10/04 11:40:28;;;;;;;;;;;20.70;50.10;;;19.76;53.56;102028.28;12254080;19;19939;-85
2023/10/04 11:44:34;;;;;;;;;;;20.80;50.20;;;19.78;53.33;102010.47;12262283;19;19919;-85
2023/10/04 11:48:36;;;;;;;;;;;20.80;50.10;;;19.80;53.09;102000.59;12259782;19;19914;-84
2023/10/04 11:52:39;;;;;;;;;;;20.90;50.20;;;19.87;53.53;102007.13;12255967;19;19919;-84
2023/10/04 11:56:42;;;;;;;;;;;20.90;50.00;;;19.84;53.50;102013.50;12255270;19;19949;-84
2023/10/04 12:00:43;;;;;;;;;;;20.90;49.70;;;19.89;53.31;102024.59;12250237;19;19930;-84
2023/10/04 12:04:46;;;;;;;;;;;20.90;49.60;;;19.89;53.34;102024.59;12253418;19;20374;-84
2023/10/04 12:08:48;;;;;;;;;;;20.90;49.70;;;19.83;53.39;102014.47;12249670;19;20321;-84
2023/10/04 12:12:52;;;;;;;;;;;20.90;49.80;;;19.94;53.48;102028.75;12256426;19;19955;-83
2023/10/04 12:16:54;;;;;;;;;;;20.90;49.60;;;19.92;53.20;102023.53;12255610;19;19911;-84
2023/10/04 12:20:56;;;;;;;;;;;21.00;49.90;;;20.05;53.33;102028.78;12251900;19;20262;-85
2023/10/04 12:24:59;;;;;;;;;;;21.00;49.90;;;19.99;53.44;102008.88;12263720;19;19919;-83
2023/10/04 12:29:00;;;;;;;;;;;21.10;49.60;;;20.05;53.01;102013.72;12251014;19;19974;-83
2023/10/04 12:33:02;;;;;;;;;;;21.10;49.70;;;20.16;53.11;102020.84;12251612;19;20328;-83
2023/10/04 12:37:04;;;;;;;;;;;21.20;49.60;;;20.11;52.96;102012.41;12254069;19;19918;-85
2023/10/04 12:41:05;;;;;;;;;;;21.20;49.30;;;20.11;53.05;102009.75;12249890;19;19948;-83
2023/10/04 12:45:10;;;;;;;;;;;21.20;49.50;;;20.20;52.78;102032.06;12249336;19;20602;-85
2023/10/04 12:49:11;;;;;;;;;;;21.20;49.40;;;20.19;53.23;102025.94;12248843;19;19922;-85
2023/10/04 12:53:14;;;;;;;;;;;21.20;49.50;;;20.25;52.74;102020.19;12245742;19;19911;-84
2023/10/04 12:57:16;;;;;;;;;;;21.20;49.30;;;20.21;53.11;102009.91;12249817;19;19939;-84
2023/10/04 13:01:21;;;;;;;;;;;21.30;49.40;;;20.27;52.80;102012.09;12250732;19;19914;-85
2023/10/04 13:05:25;;;;;;;;;;;21.30;49.40;;;20.33;53.05;101993.91;12251341;19;20263;-85
2023/10/04 13:09:27;;;;;;;;;;;21.30;49.40;;;20.43;53.07;102007.31;12250568;19;19949;-84
2023/10/04 13:13:29;;;;;;;;;;;21.30;49.50;;;20.46;53.04;102000.91;12249495;19;19917;-85
2023/10/04 13:17:31;;;;;;;;;;;21.40;49.40;;;20.42;52.64;101987.06;12248269;19;19958;-83
2023/10/04 13:21:32;;;;;;;;;;;21.50;49.30;;;20.49;52.55;102001.53;12245400;19;19918;-85
2023/10/04 13:25:33;;;;;;;;;;;21.50;49.00;;;20.42;52.48;101989.72;12249789;19;19931;-85
2023/10/04 13:29:35;;;;;;;;;;;21.50;49.20;;;20.36;52.58;101978.69;12248143;19;19903;-85
2023/10/04 13:33:36;;;;;;;;;;;21.40;49.00;;;20.30;52.59;101975.56;12250998;19;19919;-86
2023/10/04 13:37:38;;;;;;;;;;;21.40;49.20;;;20.38;52.85;101979.44;12251577;19;19923;-85
2023/10/04 13:41:40;;;;;;;;;;;21.40;49.30;;;20.37;52.32;101977.75;12246319;19;19926;-85
2023/10/04 13:45:45;;;;;;;;;;;21.40;49.20;;;20.37;52.58;101970.63;12245181;19;20299;-84
2023/10/04 13:49:47;;;;;;;;;;;21.40;49.10;;;20.40;52.47;101974.88;12245312;19;19924;-84
2023/10/04 13:53:49;;;;;;;;;;;21.40;49.30;;;20.48;52.48;101983.91;12243983;19;20346;-84
2023/10/04 13:57:55;;;;;;;;;;;21.40;49.30;;;20.58;52.70;101993.84;12244494;19;20347;-85
2023/10/04 14:01:58;;;;;;;;;;;21.50;49.00;;;20.49;52.41;101974.16;12246242;19;19975;-85
2023/10/04 14:06:06;;;;;;;;;;;21.50;49.30;;;20.58;52.61;101984.09;12238572;19;19927;-85
2023/10/04 14:10:10;;;;;;;;;;;21.50;49.20;;;20.62;52.61;101985.53;12241682;19;19943;-85
2023/10/04 14:14:14;;;;;;;;;;;21.50;49.00;;;20.52;52.35;101965.94;12240140;19;19926;-85
2023/10/04 14:18:17;;;;;;;;;;;21.60;49.10;;;20.65;52.35;101979.13;12245151;19;19922;-85
2023/10/04 14:22:19;;;;;;;;;;;21.60;48.90;;;20.70;52.56;101990.25;12244602;19;19923;-85
2023/10/04 14:26:20;;;;;;;;;;;21.60;49.10;;;20.63;52.22;101973.09;12244349;19;19926;-84
2023/10/04 14:30:25;;;;;;;;;;;21.70;48.90;;;20.67;51.92;101983.38;12241309;19;20363;-85
2023/10/04 14:34:26;;;;;;;;;;;21.60;48.90;;;20.62;52.20;101966.13;12252977;19;20288;-85
2023/10/04 14:38:28;;;;;;;;;;;21.60;49.30;;;20.71;52.08;101968.03;12255113;19;19984;-85
2023/10/04 14:42:33;;;;;;;;;;;21.70;49.10;;;20.71;52.24;101963.59;12257245;19;19914;-84
2023/10/04 14:46:34;;;;;;;;;;;21.60;49.00;;;20.72;52.24;101959.13;12256795;19;20342;-85
2023/10/04 14:50:36;;;;;;;;;;;21.70;48.40;;;20.63;51.93;101950.09;12251678;19;20299;-85
2023/10/04 14:54:38;;;;;;;;;;;21.60;48.70;;;20.66;52.05;101957.81;12253013;19;19911;-85
2023/10/04 14:58:40;;;;;;;;;;;21.60;48.80;;;20.69;51.84;101968.19;12253057;19;19952;-85
2023/10/04 15:02:44;;;;;;;;;;;21.60;48.70;;;20.57;51.92;101955.00;12256609;19;19922;-85
2023/10/04 15:06:45;;;;;;;;;;;21.50;48.60;;;20.57;52.33;101955.84;12255686;19;19919;-85
2023/10/04 15:10:49;;;;;;;;;;;21.50;48.80;;;20.64;52.26;101977.47;12250592;19;20013;-83
2023/10/04 15:14:50;;;;;;;;;;;21.50;48.10;;;20.61;51.74;101970.59;12251679;19;19930;-83
2023/10/04 15:18:53;;;;;;;;;;;21.50;48.50;;;20.56;51.94;101967.44;12252265;19;20422;-83
2023/10/04 15:22:54;;;;;;;;;;;21.50;48.60;;;20.54;51.82;101977.31;12269219;19;19935;-83
2023/10/04 15:26:56;;;;;;;;;;;21.50;48.30;;;20.51;51.67;101967.75;12253031;19;19937;-82
2023/10/04 15:31:00;;;;;;;;;;;21.40;48.60;;;20.50;51.63;101960.78;12249020;19;19915;-86
2023/10/04 15:35:03;;;;;;;;;;;21.40;48.60;;;20.51;52.08;101970.41;12247729;19;19919;-83
2023/10/04 15:39:14;;;;;;;;;;;21.40;48.70;;;20.58;51.69;101972.59;12251529;19;20254;-82
2023/10/04 15:43:17;;;;;;;;;;;21.40;48.80;;;20.51;51.94;101967.75;12252564;19;20413;-83
2023/10/04 15:47:20;;;;;;;;;;;21.40;48.70;;;20.58;51.87;101976.13;12255406;19;20330;-81
2023/10/04 15:51:22;;;;;;;;;;;21.40;48.70;;;20.55;51.66;101974.56;12254538;19;20358;-82
2023/10/04 15:55:23;;;;;;;;;;;21.40;48.70;;;20.51;51.42;101970.41;12239698;19;19919;-82
2023/10/04 15:59:25;;;;;;;;;;;21.40;48.80;;;20.57;51.75;101974.44;12247011;19;19915;-83
2023/10/04 16:03:26;;;;;;;;;;;21.40;48.80;;;20.59;51.81;101980.47;12248116;19;19923;-83
2023/10/04 16:07:28;;;;;;;;;;;21.40;48.80;;;20.62;51.87;101990.84;12249490;19;19919;-83
2023/10/04 16:11:30;;;;;;;;;;;21.40;48.80;;;20.50;51.79;101978.50;12247917;19;19943;-83
2023/10/04 16:15:31;;;;;;;;;;;21.40;48.80;;;20.59;51.66;101991.09;12248362;19;20261;-82
2023/10/04 16:19:32;;;;;;;;;;;21.40;48.80;;;20.54;51.64;101985.28;12247249;19;20573;-83
2023/10/04 16:23:34;;;;;;;;;;;21.40;48.70;;;20.52;51.67;101995.13;12251703;19;19915;-83
2023/10/04 16:27:36;;;;;;;;;;;21.40;48.70;;;20.34;51.39;101971.72;12253497;19;19948;-85
2023/10/04 16:31:39;;;;;;;;;;;21.30;48.70;;;20.45;51.46;101997.44;12252404;19;20316;-86
2023/10/04 16:35:40;;;;;;;;;;;21.30;48.80;;;20.44;51.71;101997.53;12259521;19;20311;-85
2023/10/04 16:39:41;;;;;;;;;;;21.20;48.80;;;20.39;51.23;101992.59;12274847;19;19933;-85
2023/10/04 16:43:43;;;;;;;;;;;21.20;48.80;;;20.35;51.55;101988.47;12278829;19;19915;-85
2023/10/04 16:47:46;;;;;;;;;;;21.20;48.80;;;20.35;51.23;101983.16;12279372;19;19915;-85
2023/10/04 16:51:50;;;;;;;;;;;21.20;48.90;;;20.10;51.46;101953.22;12278923;19;19910;-86
2023/10/04 16:55:51;;;;;;;;;;;21.10;48.80;;;20.30;51.43;101986.16;12273188;19;19919;-85
2023/10/04 16:59:54;;;;;;;;;;;21.10;48.90;;;20.25;51.17;101988.34;12277749;19;19923;-86
2023/10/04 17:03:55;;;;;;;;;;;21.10;48.90;;;20.25;51.39;101998.97;12276497;19;19930;-84
2023/10/04 17:07:57;;;;;;;;;;;21.00;48.90;;;20.01;51.13;101967.19;12269685;19;19915;-86
2023/10/04 17:11:58;;;;;;;;;;;21.00;48.90;;;20.08;51.00;101972.84;12268650;19;19974;-86
2023/10/04 17:16:00;;;;;;;;;;;21.00;48.90;;;20.09;51.09;101993.09;12265245;19;19927;-85
2023/10/04 17:20:04;;;;;;;;;;;20.90;48.90;;;20.03;51.41;101988.25;12265206;19;19915;-83
2023/10/04 17:24:06;;;;;;;;;;;20.80;49.30;;;19.85;51.45;101964.84;12271373;19;19927;-86
2023/10/04 17:28:07;;;;;;;;;;;20.80;48.90;;;19.88;51.25;101972.56;12275208;19;19926;-84
2023/10/04 17:32:11;;;;;;;;;;;20.80;48.90;;;19.94;51.12;101995.09;12275640;19;19935;-86
2023/10/04 17:36:13;;;;;;;;;;;20.70;48.90;;;19.84;51.35;101984.31;12272548;19;19934;-86
2023/10/04 17:40:15;;;;;;;;;;;20.70;48.90;;;19.84;51.46;101986.97;12263899;19;19926;-85
2023/10/04 17:44:16;;;;;;;;;;;20.60;48.90;;;19.79;51.36;101985.63;12260423;19;19919;-84
2023/10/04 17:48:18;;;;;;;;;;;20.60;48.90;;;19.71;51.39;101988.84;12264072;19;19922;-85
2023/10/04 17:52:20;;;;;;;;;;;20.50;48.90;;;19.71;51.14;101994.16;12259686;19;19923;-83
2023/10/04 17:56:22;;;;;;;;;;;20.40;48.90;;;19.64;51.35;101998.19;12261873;19;19935;-85
2023/10/04 18:00:24;;;;;;;;;;;20.40;48.90;;;19.57;51.17;101997.78;12264190;19;19919;-85
2023/10/04 18:04:26;;;;;;;;;;;20.40;48.90;;;19.56;51.32;101996.09;12267589;19;20072;-85
2023/10/04 18:08:27;;;;;;;;;;;20.30;48.90;;;19.55;51.29;101998.84;12276209;19;19951;-85
2023/10/04 18:12:32;;;;;;;;;;;20.30;48.90;;;19.48;51.23;101993.16;12279061;19;19932;-84